LEVC/VLC METAR and TAF weather

Enter ICAO airport designator
Station Type Date Time Source
LEVC METAR 2020/12/06 01:30 UTC NOAA

LEVC 060130Z 25013KT CAVOK 09/02 Q1005 NOSIG


Station Type Date Time Source
LEVC Decoded METAR 2020/12/06 01:30 UTC NOAA

Valencia / Aeropuerto, Spain (LEVC) 39-30N 000-28W 62M
Dec 05, 2020 - 08:30 PM EST / 2020.12.06 0130 UTC
Wind: from the WSW (250 degrees) at 15 MPH (13 KT):0
Visibility: greater than 7 mile(s):0
Temperature: 48 F (9 C)
Dew Point: 35 F (2 C)
Relative Humidity: 61%
Pressure (altimeter): 29.68 in. Hg (1005 hPa)
ob: LEVC 060130Z 25013KT CAVOK 09/02 Q1005 NOSIG
cycle: 1

Station Type Date Time Source
LEVC TAF 2020/12/05 18:27 UTC NOAA

TAF LEVC 051700Z 0518/0618 28008KT 9999 FEW030 TX14/0613Z TN07/0606Z

Example: see airport list